createdAt,value
2022-09-11T00:01:28.411Z,29.70
2022-09-11T00:06:52.811Z,29.40
2022-09-11T00:11:47.340Z,30.60
2022-09-11T00:13:45.374Z,32.70
2022-09-11T00:16:03.198Z,33.60
2022-09-11T00:22:42.101Z,33.20
2022-09-11T00:26:39.799Z,33.40
2022-09-11T00:30:56.241Z,33.50
2022-09-11T00:32:25.091Z,32.70
2022-09-11T00:33:53.998Z,37.20
2022-09-11T00:40:05.375Z,30.60
2022-09-11T00:42:04.099Z,30.60
2022-09-11T00:55:59.448Z,38.10
2022-09-11T01:09:05.925Z,40.80
2022-09-11T01:15:46.599Z,43.50
2022-09-11T01:18:42.397Z,48.40
2022-09-11T01:20:11.278Z,46.60
2022-09-11T01:22:39.959Z,51.50
2022-09-11T01:25:07.854Z,49.10
2022-09-11T01:26:37.935Z,49.90
2022-09-11T01:28:07.853Z,55.00
2022-09-11T01:29:34.783Z,53.60
2022-09-11T01:32:02.966Z,53.60
2022-09-11T01:35:00.591Z,53.50
2022-09-11T01:46:13.447Z,55.60
2022-09-11T01:52:34.073Z,66.00
2022-09-11T01:56:01.528Z,57.70
2022-09-11T02:00:00.227Z,63.50
2022-09-11T02:01:29.209Z,60.20
2022-09-11T02:04:28.255Z,62.50
2022-09-11T02:12:59.407Z,76.60
2022-09-11T02:15:56.239Z,76.80
2022-09-11T02:17:26.134Z,67.90
2022-09-11T02:24:58.832Z,71.60
2022-09-11T02:27:27.861Z,66.60
2022-09-11T02:29:25.688Z,67.00
2022-09-11T02:30:54.613Z,71.10
2022-09-11T02:34:40.142Z,97.80
2022-09-11T02:36:09.025Z,91.60
2022-09-11T02:39:35.713Z,68.30
2022-09-11T02:45:46.235Z,68.20
2022-09-11T02:47:14.764Z,73.40
2022-09-11T02:48:43.717Z,66.20
2022-09-11T02:50:13.644Z,68.40
2022-09-11T02:51:42.725Z,71.90
2022-09-11T02:54:12.620Z,69.70
2022-09-11T02:56:10.494Z,80.40
2022-09-11T03:01:43.584Z,70.20
2022-09-11T03:03:12.405Z,70.70
2022-09-11T03:05:39.056Z,74.70
2022-09-11T03:13:34.949Z,68.70
2022-09-11T03:15:02.885Z,72.20
2022-09-11T03:17:01.740Z,69.10
2022-09-11T03:19:29.499Z,62.60
2022-09-11T03:21:28.473Z,63.80
2022-09-11T03:24:25.595Z,64.50
2022-09-11T03:30:17.792Z,72.20
2022-09-11T03:35:13.337Z,57.00
2022-09-11T03:37:41.150Z,56.80
2022-09-11T03:39:10.979Z,59.70
2022-09-11T03:40:40.856Z,56.50
2022-09-11T03:42:39.627Z,57.70
2022-09-11T03:45:07.498Z,60.40
2022-09-11T03:46:39.619Z,69.90
2022-09-11T03:50:36.195Z,61.30
2022-09-11T03:52:06.131Z,74.00
2022-09-11T03:59:16.355Z,64.00
2022-09-11T04:00:45.279Z,61.40
2022-09-11T04:03:11.880Z,66.70
2022-09-11T04:07:26.324Z,63.00
2022-09-11T04:12:12.037Z,63.20
2022-09-11T04:13:41.180Z,64.70
2022-09-11T04:15:10.470Z,60.30
2022-09-11T04:16:38.963Z,61.70
2022-09-11T04:18:08.718Z,57.30
2022-09-11T04:19:38.621Z,61.70
2022-09-11T04:21:08.484Z,52.30
2022-09-11T04:23:35.204Z,56.00
2022-09-11T04:26:33.998Z,62.30
2022-09-11T04:28:32.747Z,54.60
2022-09-11T04:31:58.495Z,57.60
2022-09-11T04:33:28.290Z,55.50
2022-09-11T04:38:35.230Z,60.20
2022-09-11T04:40:34.104Z,60.60
2022-09-11T04:42:03.151Z,65.40
2022-09-11T04:52:31.858Z,65.80
2022-09-11T04:54:30.680Z,69.60
2022-09-11T04:59:44.756Z,62.10
2022-09-11T05:02:52.127Z,64.60
2022-09-11T05:04:25.962Z,63.60
2022-09-11T05:06:49.773Z,65.20
2022-09-11T05:08:19.636Z,62.90
2022-09-11T05:17:38.274Z,69.90
2022-09-11T05:19:36.050Z,72.00
2022-09-11T05:21:04.941Z,74.80
2022-09-11T05:22:34.827Z,73.50
2022-09-11T05:25:02.756Z,73.00
2022-09-11T05:26:32.726Z,71.90
2022-09-11T05:28:02.627Z,68.10
2022-09-11T05:30:30.457Z,77.60
2022-09-11T05:34:25.060Z,76.20
2022-09-11T05:37:50.683Z,79.10
2022-09-11T05:45:30.990Z,76.40
2022-09-11T05:47:48.680Z,77.30
2022-09-11T05:49:48.430Z,75.90
2022-09-11T05:51:47.135Z,82.30
2022-09-11T05:55:42.001Z,72.10
2022-09-11T05:57:10.943Z,70.10
2022-09-11T05:58:39.829Z,72.50
2022-09-11T06:02:05.481Z,72.30
2022-09-11T06:13:21.024Z,68.50
2022-09-11T06:15:47.763Z,71.90
2022-09-11T06:17:45.989Z,65.20
2022-09-11T06:20:12.870Z,60.80
2022-09-11T06:25:17.230Z,65.10
2022-09-11T06:28:15.313Z,64.60
2022-09-11T06:33:21.341Z,61.40
2022-09-11T06:37:17.026Z,68.60
2022-09-11T06:39:14.808Z,59.60
2022-09-11T06:41:12.634Z,55.50
2022-09-11T06:53:26.433Z,48.40
2022-09-11T06:56:53.316Z,53.80
2022-09-11T06:59:49.871Z,52.10
2022-09-11T07:02:48.627Z,49.90
2022-09-11T07:04:46.486Z,52.80
2022-09-11T07:10:04.498Z,51.50
2022-09-11T07:12:32.467Z,53.50
2022-09-11T07:15:49.982Z,49.30
2022-09-11T07:19:16.484Z,50.10
2022-09-11T07:24:40.058Z,45.60
2022-09-11T07:29:54.298Z,42.30
2022-09-11T07:33:39.537Z,44.70
2022-09-11T07:40:04.934Z,39.60
2022-09-11T07:41:33.806Z,45.20
2022-09-11T07:43:32.663Z,44.70
2022-09-11T07:48:29.292Z,46.00
2022-09-11T07:50:27.024Z,39.50
2022-09-11T07:51:55.889Z,38.30
2022-09-11T07:55:41.213Z,36.60
2022-09-11T07:58:08.353Z,38.40
2022-09-11T08:03:31.116Z,35.70
2022-09-11T08:05:29.866Z,32.50
2022-09-11T08:06:59.762Z,35.50
2022-09-11T08:08:58.738Z,39.30
2022-09-11T08:14:24.584Z,38.30
2022-09-11T08:21:36.727Z,34.20
2022-09-11T08:30:33.609Z,37.60
2022-09-11T08:35:00.459Z,33.70
2022-09-11T08:37:28.474Z,32.00
2022-09-11T08:38:58.381Z,35.30
2022-09-11T08:40:27.274Z,34.40
2022-09-11T08:42:25.060Z,33.20
2022-09-11T08:44:25.811Z,31.60
2022-09-11T08:45:52.809Z,33.50
2022-09-11T08:47:21.670Z,29.10
2022-09-11T08:49:19.517Z,28.00
2022-09-11T08:50:48.737Z,31.30
2022-09-11T08:56:46.971Z,30.20
2022-09-11T08:58:43.116Z,26.80
2022-09-11T09:00:43.899Z,27.20
2022-09-11T09:02:11.817Z,29.70
2022-09-11T09:03:40.830Z,26.50
2022-09-11T09:06:13.725Z,27.10
2022-09-11T09:08:11.539Z,24.00
2022-09-11T09:10:40.961Z,22.70
2022-09-11T09:13:09.672Z,26.90
2022-09-11T09:17:35.547Z,26.70
2022-09-11T09:19:04.460Z,25.40
2022-09-11T09:20:33.334Z,23.80
2022-09-11T09:22:33.172Z,26.50
2022-09-11T09:25:31.783Z,25.70
2022-09-11T09:27:59.948Z,23.80
2022-09-11T09:33:45.008Z,23.30
2022-09-11T09:38:13.145Z,23.20
2022-09-11T09:44:31.375Z,20.40
2022-09-11T09:46:01.362Z,16.20
2022-09-11T09:47:59.292Z,18.60
2022-09-11T09:53:12.351Z,16.00
2022-09-11T09:55:12.105Z,16.40
2022-09-11T10:01:02.795Z,17.20
2022-09-11T10:03:32.754Z,17.90
2022-09-11T10:09:00.167Z,19.40
2022-09-11T10:11:26.256Z,18.10
2022-09-11T10:13:25.192Z,18.70
2022-09-11T10:14:55.056Z,17.00
2022-09-11T10:16:55.072Z,17.90
2022-09-11T10:18:53.915Z,16.70
2022-09-11T10:27:33.911Z,14.50
2022-09-11T10:29:03.012Z,15.00
2022-09-11T10:30:31.909Z,13.30
2022-09-11T10:33:03.588Z,14.40
2022-09-11T10:35:58.165Z,5.20
2022-09-11T10:42:53.861Z,7.00
2022-09-11T10:48:38.031Z,7.40
2022-09-11T10:55:59.415Z,5.20
2022-09-11T11:01:34.242Z,4.50
2022-09-11T11:04:24.002Z,5.90
2022-09-11T11:07:23.595Z,4.40
2022-09-11T11:13:14.914Z,5.40
2022-09-11T11:15:14.897Z,4.30
2022-09-11T11:17:34.616Z,3.20
2022-09-11T11:25:04.348Z,7.30
2022-09-11T11:27:32.704Z,6.50
2022-09-11T11:29:21.332Z,5.10
2022-09-11T11:32:21.975Z,4.30
2022-09-11T11:34:22.789Z,3.30
2022-09-11T11:37:23.338Z,5.40
2022-09-11T11:39:24.118Z,3.70
2022-09-11T11:40:54.906Z,4.30
2022-09-11T11:43:12.751Z,3.00
2022-09-11T11:47:34.625Z,3.00
2022-09-11T11:49:37.670Z,5.20
2022-09-11T11:51:06.491Z,3.20
2022-09-11T11:54:31.509Z,3.90
2022-09-11T11:59:00.986Z,3.10
2022-09-11T12:00:27.714Z,2.60
2022-09-11T12:02:49.583Z,3.30
2022-09-11T12:05:07.554Z,3.00
2022-09-11T12:07:28.038Z,2.80
2022-09-11T12:10:30.091Z,3.50
2022-09-11T12:12:30.241Z,2.40
2022-09-11T12:18:09.732Z,1.90
2022-09-11T12:19:37.773Z,2.30
2022-09-11T12:21:38.452Z,4.40
2022-09-11T12:24:59.164Z,4.70
2022-09-11T12:26:45.519Z,3.10
2022-09-11T12:29:03.154Z,3.60
2022-09-11T12:32:12.354Z,3.00
2022-09-11T12:34:30.034Z,2.70
2022-09-11T12:37:18.748Z,2.70
2022-09-11T12:38:47.649Z,4.60
2022-09-11T12:45:16.528Z,3.00
2022-09-11T13:00:41.932Z,2.30
2022-09-11T13:04:07.544Z,4.60
2022-09-11T13:07:38.164Z,4.40
2022-09-11T13:12:41.997Z,6.30
2022-09-11T13:14:41.316Z,6.70
2022-09-11T13:16:41.341Z,4.70
2022-09-11T13:19:38.153Z,6.30
2022-09-11T13:22:07.054Z,6.60
2022-09-11T13:23:36.913Z,4.20
2022-09-11T13:29:01.698Z,8.90
2022-09-11T13:33:27.267Z,5.20
2022-09-11T13:38:24.682Z,3.80
2022-09-11T13:41:22.767Z,4.70
2022-09-11T13:43:20.753Z,4.20
2022-09-11T13:45:48.444Z,4.30
2022-09-11T13:47:18.581Z,8.10
2022-09-11T13:51:14.792Z,6.40
2022-09-11T13:53:11.043Z,6.00
2022-09-11T13:58:19.476Z,4.30
2022-09-11T14:01:09.145Z,5.30
2022-09-11T14:03:06.256Z,4.00
2022-09-11T14:06:22.940Z,4.50
2022-09-11T14:08:57.649Z,3.80
2022-09-11T14:10:56.882Z,3.40
2022-09-11T14:15:04.522Z,4.10
2022-09-11T14:16:33.427Z,4.80
2022-09-11T14:20:01.104Z,3.50
2022-09-11T14:23:15.647Z,2.90
2022-09-11T14:26:35.089Z,2.80
2022-09-11T14:28:06.977Z,4.10
2022-09-11T14:29:34.899Z,2.60
2022-09-11T14:33:24.396Z,5.00
2022-09-11T14:40:02.664Z,3.50
2022-09-11T14:41:33.460Z,4.50
2022-09-11T14:43:03.320Z,3.20
2022-09-11T14:44:52.096Z,3.50
2022-09-11T14:47:37.820Z,3.30
2022-09-11T14:51:24.092Z,4.20
2022-09-11T14:53:21.490Z,4.40
2022-09-11T14:55:52.810Z,3.70
2022-09-11T15:08:46.677Z,3.20
2022-09-11T15:11:07.366Z,4.10
2022-09-11T15:12:34.373Z,5.30
2022-09-11T15:14:16.319Z,4.50
2022-09-11T15:16:53.988Z,3.60
2022-09-11T15:21:43.809Z,4.00
2022-09-11T15:24:16.477Z,3.50
2022-09-11T15:27:04.219Z,6.10
2022-09-11T15:33:25.297Z,3.60
2022-09-11T15:36:02.719Z,5.30
2022-09-11T15:41:10.707Z,6.70
2022-09-11T15:44:13.246Z,3.60
2022-09-11T15:46:11.525Z,4.00
2022-09-11T15:48:29.235Z,3.30
2022-09-11T15:49:59.912Z,4.20
2022-09-11T15:58:37.271Z,3.80
2022-09-11T16:01:56.920Z,4.20
2022-09-11T16:03:56.835Z,3.80
2022-09-11T16:05:25.683Z,3.60
2022-09-11T16:07:23.637Z,5.10
2022-09-11T16:15:52.149Z,4.30
2022-09-11T16:21:29.376Z,3.40
2022-09-11T16:23:27.155Z,5.90
2022-09-11T16:25:26.230Z,4.20
2022-09-11T16:28:58.050Z,5.20
2022-09-11T16:33:55.595Z,5.00
2022-09-11T16:38:32.345Z,4.40
2022-09-11T16:41:30.728Z,4.80
2022-09-11T16:44:17.019Z,6.60
2022-09-11T16:46:16.767Z,5.20
2022-09-11T16:48:14.930Z,4.90
2022-09-11T16:50:14.970Z,4.90
2022-09-11T16:51:44.754Z,6.20
2022-09-11T16:54:48.782Z,5.20
2022-09-11T16:58:06.058Z,5.60
2022-09-11T17:04:01.999Z,6.70
2022-09-11T17:05:31.923Z,7.00
2022-09-11T17:07:00.841Z,6.40
2022-09-11T17:12:38.810Z,9.80
2022-09-11T17:14:38.174Z,8.00
2022-09-11T17:16:36.287Z,8.60
2022-09-11T17:19:04.722Z,8.70
2022-09-11T17:23:19.268Z,9.00
2022-09-11T17:26:51.695Z,9.70
2022-09-11T17:31:09.971Z,9.60
2022-09-11T17:33:29.059Z,9.40
2022-09-11T17:35:17.433Z,9.70
2022-09-11T17:42:56.481Z,12.30
2022-09-11T17:45:42.936Z,10.80
2022-09-11T17:49:05.960Z,10.00
2022-09-11T17:51:55.465Z,10.70
2022-09-11T17:55:02.959Z,11.50
2022-09-11T17:57:00.533Z,10.00
2022-09-11T17:59:04.247Z,10.60
2022-09-11T18:01:29.550Z,10.50
2022-09-11T18:03:49.130Z,11.00
2022-09-11T18:06:11.768Z,11.10
2022-09-11T18:11:49.230Z,13.50
2022-09-11T18:15:58.276Z,16.40
2022-09-11T18:17:28.122Z,13.30
2022-09-11T18:24:25.033Z,15.00
2022-09-11T18:29:00.249Z,13.20
2022-09-11T18:31:50.157Z,12.60
2022-09-11T18:34:18.563Z,12.60
2022-09-11T18:37:20.757Z,14.10
2022-09-11T18:40:33.258Z,13.40
2022-09-11T18:52:22.652Z,14.70
2022-09-11T18:56:53.749Z,13.30
2022-09-11T18:58:21.707Z,15.30
2022-09-11T19:00:52.753Z,15.00
2022-09-11T19:05:25.557Z,13.20
2022-09-11T19:10:03.982Z,13.00
2022-09-11T19:12:00.444Z,12.60
2022-09-11T19:14:29.989Z,12.50
2022-09-11T19:16:27.862Z,13.40
2022-09-11T19:17:57.246Z,13.20
2022-09-11T19:24:26.812Z,13.10
2022-09-11T19:25:56.706Z,13.70
2022-09-11T19:28:54.799Z,14.20
2022-09-11T19:30:24.736Z,14.40
2022-09-11T19:32:28.834Z,14.10
2022-09-11T19:33:57.870Z,14.40
2022-09-11T19:35:26.878Z,14.60
2022-09-11T19:39:17.365Z,14.10
2022-09-11T19:40:47.362Z,14.10
2022-09-11T19:42:46.394Z,12.90
2022-09-11T19:48:14.013Z,14.70
2022-09-11T19:50:15.756Z,13.70
2022-09-11T19:52:35.429Z,14.90
2022-09-11T19:55:33.354Z,13.10
2022-09-11T19:59:05.150Z,13.70
2022-09-11T20:00:34.163Z,14.00
2022-09-11T20:02:32.991Z,13.90
2022-09-11T20:04:53.582Z,14.00
2022-09-11T20:07:22.150Z,13.60
2022-09-11T20:11:37.025Z,14.30
2022-09-11T20:13:06.365Z,14.10
2022-09-11T20:14:37.411Z,14.40
2022-09-11T20:17:52.385Z,16.70
2022-09-11T20:19:22.325Z,16.00
2022-09-11T20:21:55.278Z,14.80
2022-09-11T20:25:41.009Z,17.60
2022-09-11T20:36:11.740Z,13.70
2022-09-11T20:41:27.608Z,15.40
2022-09-11T20:43:57.516Z,14.00
2022-09-11T20:48:23.124Z,15.10
2022-09-11T20:50:49.349Z,14.80
2022-09-11T20:53:07.957Z,14.30
2022-09-11T21:01:26.128Z,17.00
2022-09-11T21:04:13.341Z,17.30
2022-09-11T21:10:44.594Z,14.60
2022-09-11T21:12:15.433Z,14.70
2022-09-11T21:17:28.002Z,15.80
2022-09-11T21:24:15.906Z,16.80
2022-09-11T21:29:22.112Z,18.40
2022-09-11T21:31:19.982Z,19.70
2022-09-11T21:33:17.761Z,22.60
2022-09-11T21:35:49.415Z,19.20
2022-09-11T21:38:16.179Z,21.00
2022-09-11T21:40:45.153Z,19.30
2022-09-11T21:49:41.766Z,18.40
2022-09-11T21:51:41.633Z,18.50
2022-09-11T21:55:01.780Z,18.00
2022-09-11T21:58:50.558Z,18.70
2022-09-11T22:01:20.005Z,17.70
2022-09-11T22:03:48.768Z,18.60
2022-09-11T22:06:11.269Z,18.50
2022-09-11T22:07:38.214Z,18.90
2022-09-11T22:13:41.031Z,18.80
2022-09-11T22:17:13.209Z,19.40
2022-09-11T22:23:43.860Z,18.20
2022-09-11T22:26:12.790Z,18.70
2022-09-11T22:28:44.930Z,20.80
2022-09-11T22:30:13.806Z,19.20
2022-09-11T22:31:44.690Z,20.70
2022-09-11T22:33:11.709Z,19.20
2022-09-11T22:35:10.452Z,19.70
2022-09-11T22:37:10.266Z,20.10
2022-09-11T22:39:10.042Z,21.10
2022-09-11T22:41:41.651Z,19.90
2022-09-11T22:43:10.668Z,20.70
2022-09-11T22:44:37.617Z,20.60
2022-09-11T22:46:08.524Z,19.60
2022-09-11T22:52:15.375Z,21.10
2022-09-11T22:57:03.626Z,20.60
2022-09-11T23:01:29.188Z,20.30
2022-09-11T23:05:17.117Z,21.20
2022-09-11T23:09:56.311Z,20.60
2022-09-11T23:11:26.278Z,20.40
2022-09-11T23:12:56.126Z,20.60
2022-09-11T23:17:33.414Z,20.00
2022-09-11T23:19:32.207Z,22.00
2022-09-11T23:22:29.043Z,23.10
2022-09-11T23:23:57.988Z,20.50
2022-09-11T23:29:56.486Z,21.00
2022-09-11T23:34:40.067Z,20.50
2022-09-11T23:36:07.168Z,21.10
2022-09-11T23:39:09.978Z,22.20
2022-09-11T23:40:40.842Z,20.90
2022-09-11T23:48:42.235Z,21.70
2022-09-11T23:50:59.808Z,21.30
2022-09-11T23:52:31.389Z,19.90
2022-09-11T23:58:59.599Z,21.40
